createdAt,value
2018-12-15T00:02:23.481Z,1.30
2018-12-15T00:04:51.014Z,1.30
2018-12-15T00:07:18.504Z,1.30
2018-12-15T00:09:46.046Z,1.20
2018-12-15T00:12:13.583Z,1.10
2018-12-15T00:14:41.201Z,1.20
2018-12-15T00:17:08.698Z,1.30
2018-12-15T00:19:36.201Z,1.30
2018-12-15T00:22:03.896Z,1.40
2018-12-15T00:24:31.388Z,1.30
2018-12-15T00:26:58.932Z,1.40
2018-12-15T00:29:26.428Z,1.30
2018-12-15T00:31:53.924Z,1.30
2018-12-15T00:34:21.461Z,1.30
2018-12-15T00:36:49.271Z,1.30
2018-12-15T00:39:16.808Z,1.40
2018-12-15T00:41:44.304Z,1.30
2018-12-15T00:44:12.156Z,1.30
2018-12-15T00:46:39.649Z,1.30
2018-12-15T00:49:07.181Z,1.30
2018-12-15T00:51:34.737Z,1.30
2018-12-15T00:54:02.245Z,1.30
2018-12-15T00:56:30.038Z,1.30
2018-12-15T00:58:57.569Z,1.30
2018-12-15T01:01:25.056Z,1.30
2018-12-15T01:03:52.589Z,1.20
2018-12-15T01:06:20.322Z,1.20
2018-12-15T01:08:48.123Z,1.10
2018-12-15T01:11:15.621Z,1.20
2018-12-15T01:13:43.176Z,1.10
2018-12-15T01:16:10.668Z,1.10
2018-12-15T01:18:38.162Z,1.20
2018-12-15T01:21:05.699Z,1.20
2018-12-15T01:23:33.196Z,1.10
2018-12-15T01:26:00.733Z,1.20
2018-12-15T01:28:28.234Z,1.20
2018-12-15T01:30:55.764Z,1.30
2018-12-15T01:33:23.592Z,1.30
2018-12-15T01:35:51.124Z,1.30
2018-12-15T01:38:18.620Z,1.30
2018-12-15T01:40:46.163Z,1.30
2018-12-15T01:43:13.660Z,1.30
2018-12-15T01:45:41.191Z,1.30
2018-12-15T01:48:08.679Z,1.20
2018-12-15T01:50:36.491Z,1.30
2018-12-15T01:53:03.984Z,1.30
2018-12-15T01:55:31.529Z,1.30
2018-12-15T01:57:59.026Z,1.40
2018-12-15T02:00:26.574Z,1.20
2018-12-15T02:02:54.069Z,1.30
2018-12-15T02:05:21.567Z,1.30
2018-12-15T02:07:49.101Z,1.30
2018-12-15T02:10:16.597Z,1.40
2018-12-15T02:12:44.124Z,1.30
2018-12-15T02:15:11.660Z,1.30
2018-12-15T02:17:39.157Z,1.30
2018-12-15T02:20:07.067Z,1.50
2018-12-15T02:22:34.560Z,1.40
2018-12-15T02:25:02.165Z,1.40
2018-12-15T02:27:29.657Z,1.40
2018-12-15T02:29:57.193Z,1.40
2018-12-15T02:32:24.760Z,1.30
2018-12-15T02:34:52.361Z,1.40
2018-12-15T02:37:19.871Z,1.40
2018-12-15T02:39:47.402Z,1.50
2018-12-15T02:42:14.901Z,1.50
2018-12-15T02:44:42.445Z,1.50
2018-12-15T02:47:09.977Z,1.40
2018-12-15T02:49:37.510Z,1.30
2018-12-15T02:52:05.009Z,1.40
2018-12-15T02:54:32.561Z,1.40
2018-12-15T02:57:00.066Z,1.40
2018-12-15T02:59:27.570Z,1.40
2018-12-15T03:01:55.137Z,1.40
2018-12-15T03:04:22.633Z,1.30
2018-12-15T03:06:50.174Z,1.40
2018-12-15T03:09:17.707Z,1.30
2018-12-15T03:11:45.237Z,1.20
2018-12-15T03:14:12.738Z,1.30
2018-12-15T03:16:44.225Z,1.40
2018-12-15T03:19:11.875Z,1.40
2018-12-15T03:21:39.405Z,1.30
2018-12-15T03:24:06.941Z,1.30
2018-12-15T03:26:34.445Z,1.30
2018-12-15T03:29:02.003Z,1.20
2018-12-15T03:31:29.507Z,1.20
2018-12-15T03:33:57.014Z,1.30
2018-12-15T03:36:24.547Z,1.40
2018-12-15T03:38:52.368Z,1.50
2018-12-15T03:41:19.905Z,1.40
2018-12-15T03:43:47.410Z,1.30
2018-12-15T03:46:14.958Z,1.30
2018-12-15T03:48:42.456Z,1.30
2018-12-15T03:51:09.961Z,1.30
2018-12-15T03:53:37.510Z,1.50
2018-12-15T03:56:05.269Z,1.40
2018-12-15T03:58:32.809Z,1.30
2018-12-15T04:01:00.313Z,1.40
2018-12-15T04:03:27.858Z,1.30
2018-12-15T04:05:55.372Z,1.40
2018-12-15T04:08:22.909Z,1.50
2018-12-15T04:10:50.451Z,1.50
2018-12-15T04:13:17.994Z,1.50
2018-12-15T04:15:45.503Z,1.40
2018-12-15T04:18:13.062Z,1.50
2018-12-15T04:20:40.573Z,1.50
2018-12-15T04:23:08.394Z,1.50
2018-12-15T04:25:35.929Z,1.40
2018-12-15T04:28:03.432Z,1.30
2018-12-15T04:30:30.975Z,1.40
2018-12-15T04:32:58.481Z,1.40
2018-12-15T04:35:26.026Z,1.50
2018-12-15T04:37:53.840Z,1.50
2018-12-15T04:40:21.545Z,1.40
2018-12-15T04:42:49.086Z,1.40
2018-12-15T04:45:16.614Z,1.40
2018-12-15T04:47:44.163Z,1.40
2018-12-15T04:50:11.685Z,1.30
2018-12-15T04:52:39.229Z,1.30
2018-12-15T04:55:06.918Z,1.40
2018-12-15T04:57:34.460Z,1.30
2018-12-15T05:00:02.258Z,1.40
2018-12-15T05:02:29.760Z,1.30
2018-12-15T05:04:57.583Z,1.40
2018-12-15T05:07:25.247Z,1.40
2018-12-15T05:09:52.756Z,1.30
2018-12-15T05:12:20.301Z,1.30
2018-12-15T05:14:47.820Z,1.20
2018-12-15T05:17:15.356Z,1.20
2018-12-15T05:19:42.866Z,1.10
2018-12-15T05:22:10.666Z,1.10
2018-12-15T05:24:38.238Z,1.10
2018-12-15T05:27:07.244Z,1.20
2018-12-15T05:29:34.749Z,1.20
2018-12-15T05:32:02.286Z,1.10
2018-12-15T05:34:29.826Z,1.10
2018-12-15T05:36:57.344Z,1.20
2018-12-15T05:39:24.982Z,1.10
2018-12-15T05:41:52.482Z,1.10
2018-12-15T05:44:20.033Z,1.30
2018-12-15T05:46:49.046Z,1.20
2018-12-15T05:49:16.869Z,1.30
2018-12-15T05:51:44.639Z,1.20
2018-12-15T05:54:12.176Z,1.20
2018-12-15T05:56:39.677Z,1.20
2018-12-15T05:59:07.234Z,1.30
2018-12-15T06:01:34.737Z,1.20
2018-12-15T06:04:02.241Z,1.20
2018-12-15T06:06:29.783Z,1.20
2018-12-15T06:08:57.282Z,1.20
2018-12-15T06:11:24.825Z,1.20
2018-12-15T06:13:52.326Z,1.10
2018-12-15T06:16:19.864Z,1.20
2018-12-15T06:18:47.359Z,1.20
2018-12-15T06:21:14.894Z,1.20
2018-12-15T06:23:43.210Z,1.10
2018-12-15T06:26:10.800Z,1.10
2018-12-15T06:28:38.334Z,1.20
2018-12-15T06:31:05.891Z,1.10
2018-12-15T06:33:33.428Z,1.20
2018-12-15T06:36:00.925Z,1.00
2018-12-15T06:38:28.464Z,1.10
2018-12-15T06:40:55.969Z,1.10
2018-12-15T06:43:23.754Z,1.00
2018-12-15T06:45:51.301Z,1.10
2018-12-15T06:48:18.797Z,1.10
2018-12-15T06:50:46.351Z,1.10
2018-12-15T06:53:13.848Z,1.20
2018-12-15T06:55:41.377Z,1.00
2018-12-15T06:58:08.877Z,1.00
2018-12-15T07:00:36.417Z,1.20
2018-12-15T07:03:03.925Z,1.20
2018-12-15T07:05:31.486Z,1.20
2018-12-15T07:07:59.033Z,1.30
2018-12-15T07:10:26.540Z,1.30
2018-12-15T07:12:54.046Z,1.20
2018-12-15T07:15:21.648Z,1.10
2018-12-15T07:17:49.218Z,1.20
2018-12-15T07:20:16.713Z,1.10
2018-12-15T07:22:44.245Z,1.10
2018-12-15T07:25:11.868Z,1.20
2018-12-15T07:27:39.403Z,1.10
2018-12-15T07:30:07.458Z,1.10
2018-12-15T07:32:34.991Z,1.20
2018-12-15T07:35:02.498Z,1.30
2018-12-15T07:37:30.042Z,1.30
2018-12-15T07:39:57.533Z,1.30
2018-12-15T07:42:25.081Z,1.30
2018-12-15T07:44:52.577Z,1.20
2018-12-15T07:47:20.102Z,1.20
2018-12-15T07:49:47.638Z,1.20
2018-12-15T07:52:15.141Z,1.30
2018-12-15T07:54:42.680Z,1.30
2018-12-15T07:57:10.414Z,1.30
2018-12-15T07:59:37.956Z,1.20
2018-12-15T08:02:05.501Z,1.30
2018-12-15T08:04:33.037Z,1.20
2018-12-15T08:07:00.582Z,1.30
2018-12-15T08:09:28.146Z,1.30
2018-12-15T08:12:01.265Z,1.20
2018-12-15T08:14:28.811Z,1.30
2018-12-15T08:16:56.339Z,1.30
2018-12-15T08:19:23.846Z,1.50
2018-12-15T08:21:51.381Z,1.60
2018-12-15T08:24:18.885Z,1.60
2018-12-15T08:26:46.437Z,1.70
2018-12-15T08:29:13.940Z,1.80
2018-12-15T08:31:41.483Z,1.70
2018-12-15T08:34:08.985Z,1.90
2018-12-15T08:36:36.585Z,2.00
2018-12-15T08:39:06.112Z,2.00
2018-12-15T08:41:33.650Z,2.10
2018-12-15T08:44:01.155Z,2.20
2018-12-15T08:46:28.745Z,2.10
2018-12-15T08:48:56.241Z,2.20
2018-12-15T08:51:24.040Z,2.30
2018-12-15T08:53:51.587Z,2.20
2018-12-15T08:56:19.095Z,2.10
2018-12-15T08:58:46.856Z,2.00
2018-12-15T09:01:14.365Z,2.10
2018-12-15T09:03:41.905Z,2.30
2018-12-15T09:06:09.415Z,2.30
2018-12-15T09:08:36.982Z,2.20
2018-12-15T09:11:04.494Z,2.30
2018-12-15T09:13:32.142Z,2.30
2018-12-15T09:15:59.653Z,2.40
2018-12-15T09:18:27.310Z,2.40
2018-12-15T09:20:54.898Z,2.30
2018-12-15T09:23:22.404Z,2.30
2018-12-15T09:25:49.969Z,2.30
2018-12-15T09:28:17.521Z,2.30
2018-12-15T09:30:45.241Z,2.20
2018-12-15T09:33:12.900Z,2.30
2018-12-15T09:35:40.462Z,2.20
2018-12-15T09:38:08.011Z,2.20
2018-12-15T09:40:35.558Z,2.30
2018-12-15T09:43:03.160Z,2.30
2018-12-15T09:45:30.807Z,2.30
2018-12-15T09:48:04.301Z,2.40
2018-12-15T09:50:32.025Z,2.30
2018-12-15T09:52:59.533Z,2.30
2018-12-15T09:55:27.118Z,2.40
2018-12-15T09:57:54.660Z,2.50
2018-12-15T10:00:22.163Z,2.30
2018-12-15T10:02:49.714Z,2.40
2018-12-15T10:05:17.235Z,2.50
2018-12-15T10:07:44.767Z,2.50
2018-12-15T10:10:12.268Z,2.50
2018-12-15T10:12:39.819Z,2.60
2018-12-15T10:15:07.530Z,2.70
2018-12-15T10:17:35.137Z,2.70
2018-12-15T10:20:03.354Z,2.60
2018-12-15T10:22:30.878Z,2.70
2018-12-15T10:24:58.510Z,2.70
2018-12-15T10:27:26.070Z,2.60
2018-12-15T10:29:59.317Z,2.60
2018-12-15T10:32:32.862Z,2.60
2018-12-15T10:35:00.402Z,2.60
2018-12-15T10:37:27.905Z,2.70
2018-12-15T10:39:55.451Z,2.60
2018-12-15T10:42:23.042Z,2.60
2018-12-15T10:44:50.553Z,2.60
2018-12-15T10:47:18.090Z,2.60
2018-12-15T10:49:45.578Z,2.60
2018-12-15T10:52:13.138Z,2.70
2018-12-15T10:54:40.633Z,2.70
2018-12-15T10:57:08.142Z,2.60
2018-12-15T10:59:35.668Z,2.60
2018-12-15T11:02:03.250Z,2.60
2018-12-15T11:04:30.785Z,2.70
2018-12-15T11:06:58.288Z,2.80
2018-12-15T11:09:25.847Z,2.80
2018-12-15T11:11:53.348Z,2.70
2018-12-15T11:14:20.906Z,2.70
2018-12-15T11:16:48.418Z,2.80
2018-12-15T11:19:15.951Z,2.70
2018-12-15T11:21:43.522Z,2.90
2018-12-15T11:24:11.095Z,2.80
2018-12-15T11:26:38.593Z,2.80
2018-12-15T11:29:06.091Z,3.00
2018-12-15T11:31:33.644Z,3.00
2018-12-15T11:34:01.164Z,3.10
2018-12-15T11:36:28.706Z,2.80
2018-12-15T11:38:56.233Z,2.80
2018-12-15T11:41:23.810Z,2.60
2018-12-15T11:43:51.313Z,2.80
2018-12-15T11:46:18.817Z,2.90
2018-12-15T11:48:46.354Z,2.80
2018-12-15T11:51:13.857Z,2.70
2018-12-15T11:53:41.405Z,2.70
2018-12-15T11:56:08.910Z,2.50
2018-12-15T11:58:36.456Z,2.40
2018-12-15T12:01:04.377Z,2.50
2018-12-15T12:03:31.874Z,2.60
2018-12-15T12:05:59.421Z,2.70
2018-12-15T12:08:26.961Z,2.70
2018-12-15T12:10:54.572Z,2.80
2018-12-15T12:13:22.074Z,2.60
2018-12-15T12:15:49.617Z,2.70
2018-12-15T12:18:17.391Z,2.70
2018-12-15T12:20:44.894Z,2.80
2018-12-15T12:23:12.684Z,2.80
2018-12-15T12:25:40.182Z,2.70
2018-12-15T12:28:07.710Z,2.70
2018-12-15T12:30:35.219Z,2.70
2018-12-15T12:33:02.753Z,2.70
2018-12-15T12:35:30.249Z,2.60
2018-12-15T12:37:57.784Z,2.70
2018-12-15T12:40:25.319Z,2.70
2018-12-15T12:42:52.813Z,2.60
2018-12-15T12:45:20.595Z,2.60
2018-12-15T12:47:48.106Z,2.70
2018-12-15T12:50:15.645Z,2.70
2018-12-15T12:52:43.142Z,2.80
2018-12-15T12:55:10.688Z,2.70
2018-12-15T12:57:38.189Z,2.50
2018-12-15T13:00:05.948Z,2.60
2018-12-15T13:02:33.446Z,2.50
2018-12-15T13:05:00.986Z,2.60
2018-12-15T13:07:28.480Z,2.60
2018-12-15T13:09:55.984Z,2.70
2018-12-15T13:12:23.519Z,2.60
2018-12-15T13:14:51.022Z,2.70
2018-12-15T13:17:18.561Z,2.60
2018-12-15T13:19:46.063Z,2.40
2018-12-15T13:22:13.598Z,2.50
2018-12-15T13:24:41.097Z,2.50
2018-12-15T13:27:08.642Z,2.50
2018-12-15T13:29:36.140Z,2.50
2018-12-15T13:32:03.643Z,2.50
2018-12-15T13:34:31.254Z,2.60
2018-12-15T13:36:58.754Z,2.70
2018-12-15T13:39:26.298Z,2.80
2018-12-15T13:41:53.800Z,2.80
2018-12-15T13:44:21.433Z,2.80
2018-12-15T13:46:48.943Z,2.80
2018-12-15T13:49:16.485Z,2.80
2018-12-15T13:51:44.021Z,2.80
2018-12-15T13:54:11.528Z,2.70
2018-12-15T13:56:39.061Z,2.70
2018-12-15T13:59:06.557Z,2.60
2018-12-15T14:01:34.086Z,2.50
2018-12-15T14:04:01.590Z,2.70
2018-12-15T14:06:29.130Z,2.60
2018-12-15T14:08:56.663Z,2.50
2018-12-15T14:11:24.198Z,2.40
2018-12-15T14:13:51.699Z,2.40
2018-12-15T14:16:19.237Z,2.50
2018-12-15T14:18:46.733Z,2.40
2018-12-15T14:21:14.391Z,2.40
2018-12-15T14:23:41.928Z,2.40
2018-12-15T14:26:09.464Z,2.30
2018-12-15T14:28:37.001Z,2.40
2018-12-15T14:31:04.626Z,2.40
2018-12-15T14:33:32.162Z,2.30
2018-12-15T14:35:59.662Z,2.40
2018-12-15T14:38:27.198Z,2.20
2018-12-15T14:40:54.737Z,2.10
2018-12-15T14:43:22.294Z,2.30
2018-12-15T14:45:49.886Z,2.20
2018-12-15T14:48:17.393Z,2.40
2018-12-15T14:50:44.946Z,2.40
2018-12-15T14:53:12.726Z,2.40
2018-12-15T14:55:40.233Z,2.40
2018-12-15T14:58:07.781Z,2.40
2018-12-15T15:00:35.276Z,2.50
2018-12-15T15:03:02.821Z,2.70
2018-12-15T15:05:30.365Z,2.60
2018-12-15T15:07:57.865Z,2.60
2018-12-15T15:10:25.397Z,2.60
2018-12-15T15:12:52.902Z,2.40
2018-12-15T15:15:20.534Z,2.30
2018-12-15T15:17:48.025Z,2.30
2018-12-15T15:20:15.526Z,2.30
2018-12-15T15:22:43.064Z,2.20
2018-12-15T15:25:10.564Z,2.10
2018-12-15T15:27:38.097Z,2.00
2018-12-15T15:30:06.652Z,1.80
2018-12-15T15:32:34.225Z,1.70
2018-12-15T15:35:01.772Z,1.80
2018-12-15T15:37:29.274Z,1.80
2018-12-15T15:39:56.780Z,1.90
2018-12-15T15:42:24.336Z,1.80
2018-12-15T15:44:51.833Z,1.80
2018-12-15T15:47:19.367Z,1.70
2018-12-15T15:49:47.150Z,1.60
2018-12-15T15:52:14.697Z,1.60
2018-12-15T15:54:42.206Z,1.60
2018-12-15T15:57:09.758Z,1.60
2018-12-15T15:59:37.257Z,1.60
2018-12-15T16:02:04.984Z,1.70
2018-12-15T16:04:32.534Z,1.60
2018-12-15T16:07:00.028Z,1.60
2018-12-15T16:09:27.570Z,1.50
2018-12-15T16:11:55.363Z,1.50
2018-12-15T16:14:22.905Z,1.60
2018-12-15T16:16:50.545Z,1.50
2018-12-15T16:19:18.077Z,1.40
2018-12-15T16:21:45.581Z,1.40
2018-12-15T16:24:13.229Z,1.50
2018-12-15T16:26:40.724Z,1.60
2018-12-15T16:29:08.292Z,1.70
2018-12-15T16:31:35.861Z,1.60
2018-12-15T16:34:03.365Z,1.80
2018-12-15T16:36:30.865Z,1.80
2018-12-15T16:38:58.402Z,1.80
2018-12-15T16:41:25.941Z,1.80
2018-12-15T16:43:53.493Z,1.80
2018-12-15T16:46:21.084Z,1.80
2018-12-15T16:48:48.777Z,1.80
2018-12-15T16:51:16.340Z,1.80
2018-12-15T16:53:43.944Z,1.90
2018-12-15T16:56:11.493Z,1.80
2018-12-15T16:58:38.994Z,1.90
2018-12-15T17:01:06.597Z,1.90
2018-12-15T17:03:34.142Z,2.00
2018-12-15T17:06:01.648Z,1.80
2018-12-15T17:08:30.081Z,1.90
2018-12-15T17:10:57.581Z,1.90
2018-12-15T17:13:25.077Z,1.80
2018-12-15T17:15:52.861Z,1.90
2018-12-15T17:18:20.357Z,2.00
2018-12-15T17:20:47.895Z,1.90
2018-12-15T17:23:15.397Z,1.80
2018-12-15T17:25:42.941Z,1.70
2018-12-15T17:28:10.434Z,1.80
2018-12-15T17:30:37.933Z,1.80
2018-12-15T17:33:05.598Z,1.90
2018-12-15T17:35:33.150Z,2.00
2018-12-15T17:38:00.689Z,1.70
2018-12-15T17:40:28.428Z,1.70
2018-12-15T17:42:55.956Z,1.70
2018-12-15T17:45:23.461Z,1.70
2018-12-15T17:47:51.013Z,1.50
2018-12-15T17:50:18.565Z,1.60
2018-12-15T17:52:46.100Z,1.60
2018-12-15T17:55:13.729Z,1.30
2018-12-15T17:57:41.231Z,1.40
2018-12-15T18:00:09.703Z,1.40
2018-12-15T18:02:37.202Z,1.30
2018-12-15T18:05:05.405Z,1.40
2018-12-15T18:07:32.914Z,1.30
2018-12-15T18:10:00.453Z,1.40
2018-12-15T18:12:27.973Z,1.30
2018-12-15T18:14:55.510Z,1.50
2018-12-15T18:17:23.005Z,1.40
2018-12-15T18:19:50.578Z,1.30
2018-12-15T18:22:18.091Z,1.40
2018-12-15T18:24:45.634Z,1.40
2018-12-15T18:27:13.134Z,1.40
2018-12-15T18:29:41.118Z,1.40
2018-12-15T18:32:08.631Z,1.40
2018-12-15T18:34:36.179Z,1.40
2018-12-15T18:37:03.678Z,1.50
2018-12-15T18:39:31.205Z,1.60
2018-12-15T18:41:58.705Z,1.50
2018-12-15T18:44:26.237Z,1.30
2018-12-15T18:46:53.732Z,1.40
2018-12-15T18:49:21.297Z,1.10
2018-12-15T18:51:48.790Z,1.30
2018-12-15T18:54:16.329Z,1.30
2018-12-15T18:56:44.073Z,1.10
2018-12-15T18:59:11.871Z,1.10
2018-12-15T19:01:39.405Z,1.10
2018-12-15T19:04:06.917Z,0.90
2018-12-15T19:06:34.510Z,1.20
2018-12-15T19:09:04.261Z,1.20
2018-12-15T19:11:31.845Z,1.10
2018-12-15T19:13:59.398Z,1.00
2018-12-15T19:16:26.909Z,0.90
2018-12-15T19:18:54.698Z,0.90
2018-12-15T19:21:23.033Z,1.00
2018-12-15T19:23:50.853Z,0.70
2018-12-15T19:26:18.479Z,0.70
2018-12-15T19:28:45.978Z,0.90
2018-12-15T19:31:13.529Z,0.80
2018-12-15T19:33:41.038Z,0.80
2018-12-15T19:36:08.579Z,0.70
2018-12-15T19:38:36.077Z,0.70
2018-12-15T19:41:03.616Z,0.50
2018-12-15T19:43:31.116Z,0.50
2018-12-15T19:45:58.657Z,0.30
2018-12-15T19:48:26.404Z,0.30
2018-12-15T19:50:54.042Z,0.30
2018-12-15T19:53:21.625Z,0.30
2018-12-15T19:55:49.260Z,0.40
2018-12-15T19:58:16.766Z,0.40
2018-12-15T20:00:44.266Z,0.20
2018-12-15T20:03:11.801Z,0.00
2018-12-15T20:05:39.300Z,0.00
2018-12-15T20:08:06.833Z,0.10
2018-12-15T20:10:34.622Z,0.10
2018-12-15T20:13:02.165Z,0.00
2018-12-15T20:15:29.676Z,0.00
2018-12-15T20:17:57.214Z,0.10
2018-12-15T20:20:24.712Z,0.00
2018-12-15T20:22:52.252Z,0.00
2018-12-15T20:25:19.758Z,0.00
2018-12-15T20:27:47.325Z,0.10
2018-12-15T20:30:14.836Z,0.10
2018-12-15T20:32:42.628Z,0.20
2018-12-15T20:35:10.171Z,0.20
2018-12-15T20:37:37.708Z,0.20
2018-12-15T20:40:07.446Z,0.10
2018-12-15T20:42:35.011Z,0.10
2018-12-15T20:45:02.672Z,0.20
2018-12-15T20:47:30.270Z,0.20
2018-12-15T20:49:57.769Z,0.20
2018-12-15T20:52:25.301Z,0.30
2018-12-15T20:54:52.825Z,0.20
2018-12-15T20:57:20.378Z,0.20
2018-12-15T20:59:47.880Z,0.20
2018-12-15T21:02:15.384Z,0.10
2018-12-15T21:04:42.916Z,0.20
2018-12-15T21:07:10.458Z,0.10
2018-12-15T21:09:38.004Z,0.20
2018-12-15T21:12:05.516Z,-0.10
2018-12-15T21:14:33.066Z,-0.10
2018-12-15T21:17:00.612Z,0.10
2018-12-15T21:19:28.156Z,0.00
2018-12-15T21:21:55.675Z,-0.10
2018-12-15T21:24:23.236Z,-0.10
2018-12-15T21:26:50.745Z,-0.10
2018-12-15T21:29:18.594Z,-0.10
2018-12-15T21:31:46.891Z,-0.20
2018-12-15T21:34:14.605Z,-0.10
2018-12-15T21:36:42.150Z,-0.10
2018-12-15T21:39:09.945Z,-0.10
2018-12-15T21:41:37.504Z,-0.30
2018-12-15T21:44:05.004Z,-0.20
2018-12-15T21:46:32.522Z,-0.30
2018-12-15T21:49:00.069Z,-0.20
2018-12-15T21:51:27.841Z,-0.30
2018-12-15T21:53:55.499Z,-0.30
2018-12-15T21:56:23.102Z,-0.40
2018-12-15T21:58:50.606Z,-0.30
2018-12-15T22:01:18.156Z,-0.60
2018-12-15T22:03:45.673Z,-0.60
2018-12-15T22:06:13.223Z,-0.60
2018-12-15T22:08:40.785Z,-0.50
2018-12-15T22:11:08.420Z,-0.40
2018-12-15T22:13:35.926Z,-0.50
2018-12-15T22:16:03.433Z,-0.80
2018-12-15T22:18:30.973Z,-1.00
2018-12-15T22:20:58.787Z,-0.80
2018-12-15T22:23:26.293Z,-0.80
2018-12-15T22:25:53.845Z,-0.70
2018-12-15T22:28:21.353Z,-0.70
2018-12-15T22:30:48.974Z,-0.60
2018-12-15T22:33:16.556Z,-0.70
2018-12-15T22:35:44.098Z,-0.90
2018-12-15T22:38:11.605Z,-0.90
2018-12-15T22:40:39.153Z,-0.90
2018-12-15T22:43:06.657Z,-0.80
2018-12-15T22:45:34.204Z,-0.80
2018-12-15T22:48:01.711Z,-0.90
2018-12-15T22:50:29.273Z,-0.90
2018-12-15T22:52:56.894Z,-0.90
2018-12-15T22:55:24.717Z,-0.90
2018-12-15T22:57:52.258Z,-0.90
2018-12-15T23:00:19.769Z,-0.80
2018-12-15T23:02:47.318Z,-0.80
2018-12-15T23:05:14.827Z,-0.80
2018-12-15T23:07:42.380Z,-1.00
2018-12-15T23:10:09.949Z,-0.90
2018-12-15T23:12:37.521Z,-1.00
2018-12-15T23:15:06.309Z,-0.80
2018-12-15T23:17:33.818Z,-0.80
2018-12-15T23:20:01.391Z,-0.90
2018-12-15T23:22:28.926Z,-0.90
2018-12-15T23:24:56.464Z,-1.10
2018-12-15T23:27:24.009Z,-1.10
2018-12-15T23:29:51.554Z,-1.00
2018-12-15T23:32:19.057Z,-1.00
2018-12-15T23:34:46.608Z,-1.00
2018-12-15T23:37:14.129Z,-1.00
2018-12-15T23:39:41.669Z,-0.90
2018-12-15T23:42:09.220Z,-0.80
2018-12-15T23:44:36.727Z,-1.00
2018-12-15T23:47:04.268Z,-0.80
2018-12-15T23:49:32.089Z,-0.80
2018-12-15T23:51:59.610Z,-0.90
2018-12-15T23:54:27.166Z,-0.80
2018-12-15T23:56:54.750Z,-0.80
2018-12-15T23:59:22.302Z,-0.90
